Time;durP1;ratioP1;P1;durP2;ratioP2;P2;SDS_P1;SDS_P2;PMS_P1;PMS_P2;Temp;Humidity;BMP_temperature;BMP_pressure;BME280_temperature;BME280_humidity;BME280_pressure;Samples;Min_cycle;Max_cycle;Signal;HPM_P1;HPM_P2
2024/01/05 00:01:00;;;;;;;1.60;1.30;;;8.50;98.20;;;;;;6080968;23;20426;-82
2024/01/05 00:03:27;;;;;;;1.60;1.20;;;8.50;98.20;;;;;;6094308;23;20435;-82
2024/01/05 00:05:54;;;;;;;1.60;1.20;;;8.50;98.20;;;;;;6081308;23;20442;-83
2024/01/05 00:08:21;;;;;;;1.60;1.20;;;8.50;98.20;;;;;;6093352;23;20422;-83
2024/01/05 00:10:48;;;;;;;1.60;1.30;;;8.50;98.20;;;;;;6088157;23;20490;-83
2024/01/05 00:13:14;;;;;;;1.60;1.20;;;8.50;98.20;;;;;;6093085;23;20473;-83
2024/01/05 00:15:41;;;;;;;1.70;1.50;;;8.60;98.20;;;;;;6095451;23;20842;-82
2024/01/05 00:18:09;;;;;;;1.60;1.30;;;8.60;98.20;;;;;;6079262;23;20538;-82
2024/01/05 00:20:36;;;;;;;1.60;1.20;;;8.60;98.20;;;;;;6095563;23;20908;-83
2024/01/05 00:23:03;;;;;;;1.60;1.20;;;8.60;98.20;;;;;;6080093;23;20681;-83
2024/01/05 00:25:30;;;;;;;1.60;1.20;;;8.70;98.20;;;;;;6094786;23;20810;-81
2024/01/05 00:27:57;;;;;;;1.60;1.20;;;8.70;98.20;;;;;;6079184;23;20474;-82
2024/01/05 00:30:23;;;;;;;1.60;1.10;;;8.70;98.20;;;;;;6095982;23;20490;-81
2024/01/05 00:32:50;;;;;;;1.60;1.10;;;8.70;98.20;;;;;;6079753;23;20454;-84
2024/01/05 00:35:18;;;;;;;1.60;1.20;;;8.60;98.20;;;;;;6094963;23;20594;-83
2024/01/05 00:37:45;;;;;;;1.60;1.20;;;8.60;98.20;;;;;;6079576;23;20526;-82
2024/01/05 00:40:12;;;;;;;1.60;1.20;;;8.70;98.20;;;;;;6095064;23;20422;-82
2024/01/05 00:42:39;;;;;;;1.60;1.20;;;8.70;98.20;;;;;;6078200;23;20542;-79
2024/01/05 00:45:07;;;;;;;1.70;1.60;;;8.70;98.20;;;;;;6092082;23;20445;-81
2024/01/05 00:47:34;;;;;;;1.60;1.20;;;8.70;98.20;;;;;;6078672;23;20461;-83
2024/01/05 00:50:00;;;;;;;1.60;1.10;;;8.70;98.20;;;;;;6095151;23;20506;-80
2024/01/05 00:52:29;;;;;;;1.60;1.30;;;8.70;98.20;;;;;;6079829;23;20451;-82
2024/01/05 00:54:55;;;;;;;1.60;1.20;;;8.70;98.20;;;;;;6094548;23;20534;-82
2024/01/05 00:57:22;;;;;;;1.60;1.20;;;8.70;98.20;;;;;;6079421;23;20525;-84
2024/01/05 00:59:49;;;;;;;1.60;1.20;;;8.70;98.20;;;;;;6104154;23;20700;-81
2024/01/05 01:02:16;;;;;;;1.60;1.20;;;8.80;98.20;;;;;;6079922;23;20527;-83
2024/01/05 01:04:43;;;;;;;1.60;1.30;;;8.80;98.20;;;;;;6094007;23;20478;-82
2024/01/05 01:07:09;;;;;;;1.60;1.20;;;8.80;98.20;;;;;;6080023;23;20456;-83
2024/01/05 01:09:37;;;;;;;1.60;1.10;;;8.80;98.20;;;;;;6093995;23;20418;-81
2024/01/05 01:12:05;;;;;;;1.60;1.30;;;8.80;98.20;;;;;;6079231;23;21051;-83
2024/01/05 01:14:32;;;;;;;1.60;1.30;;;8.80;98.20;;;;;;6093304;23;20474;-85
2024/01/05 01:16:58;;;;;;;1.60;1.10;;;8.80;98.20;;;;;;6080189;23;20529;-83
2024/01/05 01:19:25;;;;;;;1.60;1.20;;;8.80;98.20;;;;;;6094315;23;20502;-83
2024/01/05 01:21:52;;;;;;;1.60;1.20;;;8.80;98.20;;;;;;6086067;23;20470;-81
2024/01/05 01:24:19;;;;;;;1.60;1.20;;;8.80;98.20;;;;;;6094338;23;20518;-81
2024/01/05 01:26:47;;;;;;;1.60;1.27;;;8.80;98.20;;;;;;6079818;23;20558;-82
2024/01/05 01:29:14;;;;;;;1.60;1.20;;;8.80;98.20;;;;;;6094598;23;20423;-80
2024/01/05 01:31:41;;;;;;;1.60;1.20;;;8.80;98.20;;;;;;6080885;23;20474;-84
2024/01/05 01:34:08;;;;;;;1.60;1.10;;;8.80;98.20;;;;;;6094560;23;20463;-83
2024/01/05 01:36:34;;;;;;;1.60;1.20;;;8.80;98.20;;;;;;6080184;23;20461;-81
2024/01/05 01:39:04;;;;;;;1.60;1.20;;;8.90;98.20;;;;;;6093123;23;20431;-84
2024/01/05 01:41:31;;;;;;;1.60;1.30;;;8.80;98.20;;;;;;6080550;23;20458;-83
2024/01/05 01:44:00;;;;;;;1.70;1.50;;;8.80;98.20;;;;;;6094992;23;20441;-84
2024/01/05 01:46:27;;;;;;;1.60;1.20;;;8.80;98.20;;;;;;6079267;23;20450;-82
2024/01/05 01:48:54;;;;;;;1.60;1.30;;;8.80;98.20;;;;;;6104258;23;20410;-83
2024/01/05 01:51:21;;;;;;;1.60;1.20;;;8.80;98.20;;;;;;6087927;23;20450;-82
2024/01/05 01:53:48;;;;;;;1.60;1.20;;;8.80;98.20;;;;;;6102847;23;20450;-83
2024/01/05 01:56:15;;;;;;;1.60;1.20;;;8.80;98.20;;;;;;6079811;23;20549;-81
2024/01/05 01:58:45;;;;;;;1.60;1.20;;;8.90;98.20;;;;;;6093961;23;20422;-83
2024/01/05 02:01:13;;;;;;;1.60;1.20;;;8.90;98.20;;;;;;6080882;23;20523;-84
2024/01/05 02:03:41;;;;;;;1.60;1.20;;;8.90;98.20;;;;;;6094877;23;20525;-84
2024/01/05 02:06:08;;;;;;;1.60;1.20;;;8.90;98.20;;;;;;6080204;23;20450;-82
2024/01/05 02:08:35;;;;;;;1.60;1.23;;;8.90;98.20;;;;;;6093910;23;20497;-84
2024/01/05 02:11:02;;;;;;;1.57;1.20;;;8.90;98.20;;;;;;6081166;23;20466;-84
2024/01/05 02:13:29;;;;;;;1.60;1.20;;;8.90;98.20;;;;;;6098962;23;20744;-84
2024/01/05 02:15:56;;;;;;;1.60;1.10;;;8.90;98.20;;;;;;6089534;23;20972;-82
2024/01/05 02:18:24;;;;;;;1.60;1.10;;;8.90;98.20;;;;;;6092622;23;20425;-83
2024/01/05 02:20:51;;;;;;;1.57;1.20;;;8.90;98.20;;;;;;6084399;23;20450;-84
2024/01/05 02:23:26;;;;;;;1.60;1.20;;;8.90;98.20;;;;;;6096569;23;20494;-84
2024/01/05 02:25:54;;;;;;;1.60;1.10;;;8.90;98.20;;;;;;6081806;23;20519;-84
2024/01/05 02:28:21;;;;;;;1.60;1.10;;;8.90;98.20;;;;;;6096143;23;21079;-84
2024/01/05 02:30:48;;;;;;;1.60;1.40;;;8.90;98.20;;;;;;6101226;23;20422;-83
2024/01/05 02:33:15;;;;;;;1.60;1.10;;;8.90;98.20;;;;;;6095427;23;20462;-83
2024/01/05 02:35:42;;;;;;;1.60;1.20;;;8.90;98.20;;;;;;6107861;23;20420;-82
2024/01/05 02:38:08;;;;;;;1.60;1.10;;;8.90;98.20;;;;;;6083365;23;20558;-84
2024/01/05 02:40:36;;;;;;;1.60;1.17;;;8.90;98.20;;;;;;6097885;23;20432;-84
2024/01/05 02:43:04;;;;;;;1.60;1.10;;;8.90;98.20;;;;;;6083539;23;21216;-84
2024/01/05 02:45:31;;;;;;;1.60;1.20;;;9.00;98.20;;;;;;6097179;23;20493;-82
2024/01/05 02:47:57;;;;;;;1.60;1.10;;;9.00;98.20;;;;;;6081310;23;20456;-80
2024/01/05 02:50:24;;;;;;;2.77;2.57;;;9.00;98.20;;;;;;6098059;23;20425;-83
2024/01/05 02:52:52;;;;;;;1.60;1.30;;;9.00;98.20;;;;;;6081268;23;20469;-82
2024/01/05 02:55:19;;;;;;;1.60;1.20;;;8.90;98.20;;;;;;6096398;23;20450;-82
2024/01/05 02:57:47;;;;;;;3.10;2.90;;;8.90;98.20;;;;;;6083037;23;20903;-84
2024/01/05 03:00:15;;;;;;;1.60;1.10;;;8.90;98.20;;;;;;6096725;23;20513;-84
2024/01/05 03:02:41;;;;;;;1.60;1.10;;;8.90;98.20;;;;;;6082080;23;20450;-84
2024/01/05 03:05:11;;;;;;;1.60;1.20;;;8.80;98.20;;;;;;6096465;23;20468;-84
2024/01/05 03:07:38;;;;;;;1.60;1.20;;;8.80;98.20;;;;;;6081401;23;20454;-83
2024/01/05 03:10:05;;;;;;;1.60;1.20;;;8.80;98.20;;;;;;6108494;23;20453;-80
2024/01/05 03:12:31;;;;;;;1.60;1.20;;;8.80;98.20;;;;;;6081694;23;20449;-84
2024/01/05 03:15:00;;;;;;;1.60;1.20;;;8.80;98.20;;;;;;6097147;23;20454;-83
2024/01/05 03:17:26;;;;;;;1.60;1.20;;;8.80;98.20;;;;;;6084888;23;20986;-83
2024/01/05 03:19:53;;;;;;;1.60;1.20;;;8.80;98.20;;;;;;6097774;23;20462;-82
2024/01/05 03:22:20;;;;;;;1.60;1.20;;;8.80;98.20;;;;;;6083806;23;20993;-85
2024/01/05 03:24:47;;;;;;;1.60;1.20;;;8.80;98.20;;;;;;6098271;23;20442;-84
2024/01/05 03:27:14;;;;;;;1.60;1.10;;;8.80;98.20;;;;;;6078506;23;20551;-80
2024/01/05 03:29:41;;;;;;;1.60;1.20;;;8.80;98.20;;;;;;6050062;23;20425;-80
2024/01/05 03:32:09;;;;;;;1.60;1.27;;;8.70;98.20;;;;;;6056085;23;20457;-80
2024/01/05 03:34:36;;;;;;;1.60;1.20;;;8.70;98.20;;;;;;6053142;23;20451;-80
2024/01/05 03:37:03;;;;;;;1.60;1.20;;;8.70;98.20;;;;;;6053670;23;20478;-80
2024/01/05 03:39:30;;;;;;;1.60;1.20;;;8.70;98.20;;;;;;6055707;23;20529;-80
2024/01/05 03:41:56;;;;;;;1.60;1.20;;;8.70;98.20;;;;;;6052593;23;20521;-80
2024/01/05 03:44:23;;;;;;;1.60;1.20;;;8.60;98.20;;;;;;6057750;23;20430;-80
2024/01/05 03:46:50;;;;;;;1.67;1.20;;;8.60;98.20;;;;;;6048340;23;20457;-80
2024/01/05 03:49:19;;;;;;;1.60;1.10;;;8.60;98.20;;;;;;6058861;23;20454;-80
2024/01/05 03:51:45;;;;;;;1.60;1.20;;;8.60;98.20;;;;;;6047186;23;20477;-80
2024/01/05 03:54:12;;;;;;;1.60;1.30;;;8.60;98.20;;;;;;6060563;23;20462;-80
2024/01/05 03:56:40;;;;;;;1.60;1.20;;;8.60;98.20;;;;;;6042722;23;20455;-80
2024/01/05 03:59:07;;;;;;;1.60;1.30;;;8.60;98.20;;;;;;6064157;23;20937;-79
2024/01/05 04:01:34;;;;;;;2.57;2.37;;;8.60;98.20;;;;;;6043740;23;20455;-79
2024/01/05 04:04:01;;;;;;;1.60;1.20;;;8.60;98.20;;;;;;6067247;23;20452;-80
2024/01/05 04:06:29;;;;;;;1.60;1.10;;;8.60;98.20;;;;;;6040222;23;20795;-80
2024/01/05 04:08:56;;;;;;;1.60;1.20;;;8.60;98.20;;;;;;6077870;23;20456;-80
2024/01/05 04:11:25;;;;;;;1.60;1.10;;;8.70;98.20;;;;;;6038366;23;20459;-80
2024/01/05 04:13:52;;;;;;;1.60;1.20;;;8.70;98.20;;;;;;6071198;23;20459;-80
2024/01/05 04:16:19;;;;;;;1.60;1.10;;;8.80;98.20;;;;;;6037400;23;20993;-80
2024/01/05 04:18:45;;;;;;;1.60;1.20;;;8.80;98.20;;;;;;6072248;23;20448;-79
2024/01/05 04:21:13;;;;;;;1.60;1.10;;;8.80;98.20;;;;;;6035465;23;20446;-79
2024/01/05 04:23:41;;;;;;;1.60;1.20;;;8.90;98.20;;;;;;6074724;23;20764;-80
2024/01/05 04:26:08;;;;;;;1.60;1.20;;;9.00;98.20;;;;;;6032294;23;20447;-80
2024/01/05 04:28:35;;;;;;;1.60;1.10;;;9.00;98.20;;;;;;6075580;23;20462;-79
2024/01/05 04:31:02;;;;;;;1.60;1.20;;;9.00;98.20;;;;;;6032763;23;20421;-80
2024/01/05 04:33:29;;;;;;;1.60;1.10;;;9.00;98.20;;;;;;6077626;23;20428;-79
2024/01/05 04:35:56;;;;;;;1.60;1.10;;;9.10;98.20;;;;;;6027696;23;20631;-79
2024/01/05 04:38:22;;;;;;;1.60;1.10;;;9.10;98.20;;;;;;6079005;23;20447;-80
2024/01/05 04:40:50;;;;;;;1.60;1.20;;;9.20;98.20;;;;;;6027057;23;20424;-79
2024/01/05 04:43:17;;;;;;;1.57;1.10;;;9.20;98.20;;;;;;6098580;23;20431;-79
2024/01/05 04:45:44;;;;;;;1.60;1.20;;;9.20;98.20;;;;;;6053715;23;20423;-80
2024/01/05 04:48:11;;;;;;;1.60;1.20;;;9.20;98.20;;;;;;6055421;23;20470;-80
2024/01/05 04:50:38;;;;;;;1.60;1.10;;;9.20;98.20;;;;;;6067179;23;20416;-80
2024/01/05 04:53:04;;;;;;;1.60;1.20;;;9.20;98.20;;;;;;6100208;23;20445;-80
2024/01/05 04:55:31;;;;;;;1.60;1.10;;;9.20;98.20;;;;;;6066300;23;21005;-80
2024/01/05 04:57:59;;;;;;;1.60;1.10;;;9.20;98.20;;;;;;6106635;23;20537;-81
2024/01/05 05:00:26;;;;;;;1.60;1.20;;;9.20;98.20;;;;;;6068442;23;20420;-82
2024/01/05 05:02:53;;;;;;;1.60;1.30;;;9.30;98.20;;;;;;6101141;23;20471;-81
2024/01/05 05:05:22;;;;;;;1.60;1.20;;;9.30;98.20;;;;;;6066903;23;20420;-81
2024/01/05 05:07:49;;;;;;;1.60;1.10;;;9.30;98.20;;;;;;6104360;23;20887;-80
2024/01/05 05:10:16;;;;;;;1.60;1.10;;;9.30;98.20;;;;;;6067979;23;20428;-80
2024/01/05 05:12:42;;;;;;;1.97;1.77;;;9.40;98.20;;;;;;6098647;23;20517;-80
2024/01/05 05:15:11;;;;;;;1.60;1.20;;;9.40;98.20;;;;;;6069004;23;20447;-80
2024/01/05 05:17:38;;;;;;;1.60;1.17;;;9.40;98.20;;;;;;6094620;23;20458;-80
2024/01/05 05:20:05;;;;;;;1.60;1.10;;;9.40;98.20;;;;;;6072476;23;20451;-80
2024/01/05 05:22:32;;;;;;;1.60;1.20;;;9.40;98.20;;;;;;6096885;23;20513;-80
2024/01/05 05:24:59;;;;;;;1.60;1.10;;;9.40;98.20;;;;;;6075559;23;20906;-80
2024/01/05 05:27:25;;;;;;;1.60;1.10;;;9.40;98.20;;;;;;6096577;23;20563;-81
2024/01/05 05:29:52;;;;;;;1.60;1.10;;;9.40;98.20;;;;;;6077113;23;20443;-81
2024/01/05 05:32:20;;;;;;;1.60;1.10;;;9.40;98.20;;;;;;6089718;23;20473;-80
2024/01/05 05:34:47;;;;;;;1.60;1.20;;;9.40;98.20;;;;;;6077715;23;20466;-81
2024/01/05 05:37:14;;;;;;;1.60;1.10;;;9.40;98.20;;;;;;6087029;23;20454;-81
2024/01/05 05:39:41;;;;;;;1.60;1.10;;;9.40;98.20;;;;;;6078326;23;20423;-80
2024/01/05 05:42:08;;;;;;;1.57;1.10;;;9.40;98.20;;;;;;6083163;23;20449;-81
2024/01/05 05:44:35;;;;;;;1.87;1.67;;;9.40;98.20;;;;;;6080181;23;20426;-80
2024/01/05 05:47:01;;;;;;;1.60;1.10;;;9.50;98.20;;;;;;6084394;23;20532;-79
2024/01/05 05:49:30;;;;;;;1.60;1.10;;;9.50;98.20;;;;;;6084240;23;20424;-81
2024/01/05 05:51:56;;;;;;;1.60;1.10;;;9.50;98.20;;;;;;6082167;23;20520;-82
2024/01/05 05:54:23;;;;;;;1.60;1.10;;;9.50;98.20;;;;;;6086362;23;20427;-81
2024/01/05 05:56:50;;;;;;;1.60;1.17;;;9.50;98.20;;;;;;6075121;23;20456;-80
2024/01/05 05:59:17;;;;;;;1.60;1.10;;;9.40;98.20;;;;;;6087579;23;20446;-80
2024/01/05 06:01:44;;;;;;;1.60;1.10;;;9.40;98.20;;;;;;6080229;23;20454;-80
2024/01/05 06:04:13;;;;;;;1.57;1.10;;;9.40;98.20;;;;;;6090782;23;20479;-81
2024/01/05 06:06:41;;;;;;;1.60;1.20;;;9.40;98.20;;;;;;6071505;23;20454;-80
2024/01/05 06:09:08;;;;;;;1.60;1.10;;;9.40;98.20;;;;;;6093457;23;20443;-81
2024/01/05 06:11:35;;;;;;;1.60;1.10;;;9.40;98.20;;;;;;6072991;23;20490;-80
2024/01/05 06:14:04;;;;;;;1.60;1.20;;;9.40;98.20;;;;;;6096603;23;20939;-80
2024/01/05 06:16:33;;;;;;;1.57;1.10;;;9.40;98.20;;;;;;6070463;23;20463;-80
2024/01/05 06:19:00;;;;;;;1.60;1.10;;;9.40;98.20;;;;;;6095390;23;20458;-81
2024/01/05 06:21:27;;;;;;;1.60;1.10;;;9.30;98.20;;;;;;6083506;23;20456;-80
2024/01/05 06:23:55;;;;;;;1.97;1.77;;;9.40;98.20;;;;;;6099868;23;20826;-80
2024/01/05 06:26:22;;;;;;;1.60;1.10;;;9.40;98.20;;;;;;6066477;23;20467;-81
2024/01/05 06:28:49;;;;;;;1.60;1.30;;;9.30;98.20;;;;;;6099471;23;21040;-80
2024/01/05 06:31:16;;;;;;;1.60;1.10;;;9.30;98.20;;;;;;6062340;23;20500;-82
2024/01/05 06:33:43;;;;;;;1.60;1.20;;;9.30;98.20;;;;;;6102045;23;20419;-81
2024/01/05 06:36:09;;;;;;;1.60;1.10;;;9.30;98.20;;;;;;6061309;23;20986;-81
2024/01/05 06:38:36;;;;;;;1.60;1.10;;;9.30;98.20;;;;;;6104154;23;20478;-81
2024/01/05 06:41:05;;;;;;;2.60;2.40;;;9.40;98.20;;;;;;6061378;23;20423;-81
2024/01/05 06:43:32;;;;;;;1.60;1.20;;;9.40;98.20;;;;;;6108369;23;20420;-81
2024/01/05 06:45:59;;;;;;;1.60;1.10;;;9.50;98.20;;;;;;6058358;23;20463;-80
2024/01/05 06:48:25;;;;;;;1.60;1.10;;;9.50;98.20;;;;;;6108759;23;20449;-81
2024/01/05 06:50:52;;;;;;;1.53;1.10;;;9.60;98.20;;;;;;6057849;23;20955;-80
2024/01/05 06:53:19;;;;;;;1.60;1.10;;;9.60;98.20;;;;;;6111934;23;20762;-81
2024/01/05 06:55:46;;;;;;;1.60;1.10;;;9.60;98.20;;;;;;6068233;23;20863;-81
2024/01/05 06:58:14;;;;;;;1.57;1.10;;;9.70;98.20;;;;;;6051242;23;20859;-81
2024/01/05 07:00:41;;;;;;;1.57;1.00;;;9.70;98.20;;;;;;6079446;23;20486;-80
2024/01/05 07:03:09;;;;;;;1.50;1.00;;;9.70;98.20;;;;;;6117091;23;20455;-80
2024/01/05 07:05:36;;;;;;;1.60;1.10;;;9.70;98.20;;;;;;6068409;23;20514;-80
2024/01/05 07:08:03;;;;;;;1.60;1.10;;;9.80;98.20;;;;;;6101301;23;20697;-80
2024/01/05 07:10:29;;;;;;;1.60;1.20;;;9.70;98.20;;;;;;6068612;23;20415;-80
2024/01/05 07:12:56;;;;;;;1.60;1.10;;;9.70;98.20;;;;;;6100020;23;20788;-79
2024/01/05 07:15:24;;;;;;;1.60;1.10;;;9.70;98.20;;;;;;6068801;23;20885;-80
2024/01/05 07:17:51;;;;;;;1.60;1.10;;;9.60;98.20;;;;;;6100911;23;20577;-80
2024/01/05 07:23:03;;;;;;;1.60;1.10;;;9.60;98.20;;;;;;6108925;23;20701;-79
2024/01/05 07:25:52;;;;;;;1.60;1.10;;;9.60;98.20;;;;;;6142603;23;20390;-84
2024/01/05 07:28:52;;;;;;;1.60;1.20;;;9.60;98.20;;;;;;6067644;23;20494;-82
2024/01/05 07:31:24;;;;;;;1.60;1.17;;;9.60;98.20;;;;;;6099530;23;20487;-80
2024/01/05 07:34:20;;;;;;;1.57;1.10;;;9.60;98.20;;;;;;6136545;23;20426;-84
2024/01/05 07:36:47;;;;;;;1.57;1.20;;;9.50;98.20;;;;;;6107734;23;20484;-81
2024/01/05 07:39:15;;;;;;;1.60;1.10;;;9.50;98.20;;;;;;6109464;23;21064;-81
2024/01/05 07:42:03;;;;;;;1.60;1.20;;;9.50;98.20;;;;;;6108321;23;20445;-81
2024/01/05 07:44:30;;;;;;;1.57;1.10;;;9.50;98.20;;;;;;6121876;23;20423;-80
2024/01/05 07:50:48;;;;;;;1.60;1.13;;;9.50;98.20;;;;;;6099343;23;20431;-84
2024/01/05 07:53:24;;;;;;;1.60;1.10;;;9.50;98.20;;;;;;6090342;23;20483;-83
2024/01/05 07:55:52;;;;;;;1.60;1.20;;;9.50;98.20;;;;;;6090311;23;20746;-82
2024/01/05 07:58:19;;;;;;;1.60;1.10;;;9.40;98.20;;;;;;6132547;23;20514;-81
2024/01/05 08:00:46;;;;;;;1.57;1.10;;;9.40;98.20;;;;;;6104131;23;20523;-82
2024/01/05 08:03:13;;;;;;;1.60;1.10;;;9.40;98.20;;;;;;6081358;23;20458;-82
2024/01/05 08:05:41;;;;;;;1.60;1.20;;;9.40;98.20;;;;;;6098196;23;20418;-82
2024/01/05 08:10:44;;;;;;;1.60;1.20;;;9.30;98.20;;;;;;6096592;23;20462;-80
2024/01/05 08:13:11;;;;;;;1.60;1.10;;;9.30;98.20;;;;;;6106642;23;21088;-80
2024/01/05 08:15:38;;;;;;;1.60;1.10;;;9.30;98.20;;;;;;6097954;23;20447;-81
2024/01/05 08:18:34;;;;;;;1.53;1.10;;;9.30;98.20;;;;;;6106731;23;20982;-81
2024/01/05 08:21:02;;;;;;;1.60;1.10;;;9.20;98.20;;;;;;6106798;23;20553;-81
2024/01/05 08:23:31;;;;;;;1.60;1.20;;;9.20;98.20;;;;;;6134664;23;20422;-82
2024/01/05 08:28:34;;;;;;;1.57;1.20;;;9.20;98.20;;;;;;6105923;23;20590;-82
2024/01/05 08:31:01;;;;;;;1.53;1.10;;;9.20;98.20;;;;;;6096602;23;20418;-81
2024/01/05 08:33:28;;;;;;;1.60;1.20;;;9.20;98.20;;;;;;6118220;23;20422;-82
2024/01/05 08:35:55;;;;;;;1.60;1.20;;;9.20;98.20;;;;;;6084885;23;20453;-81
2024/01/05 08:41:03;;;;;;;1.60;1.20;;;9.20;98.20;;;;;;6102633;23;20422;-82
2024/01/05 08:43:30;;;;;;;1.60;1.20;;;9.20;98.20;;;;;;6116428;23;20433;-82
2024/01/05 08:45:58;;;;;;;1.60;1.10;;;9.20;98.20;;;;;;6082475;23;20415;-82
2024/01/05 08:48:25;;;;;;;1.60;1.20;;;9.20;98.20;;;;;;6116848;23;20804;-83
2024/01/05 08:50:52;;;;;;;1.60;1.20;;;9.30;98.20;;;;;;6085118;23;21030;-82
2024/01/05 08:53:21;;;;;;;1.57;1.10;;;9.30;98.20;;;;;;6129248;23;20501;-82
2024/01/05 08:55:48;;;;;;;1.60;1.10;;;9.30;98.20;;;;;;6089061;23;20446;-82
2024/01/05 08:58:14;;;;;;;1.53;1.10;;;9.30;98.20;;;;;;6118811;23;20501;-81
2024/01/05 09:00:41;;;;;;;1.60;1.10;;;9.30;98.20;;;;;;6098161;23;20911;-82
2024/01/05 09:09:14;;;;;;;1.60;1.10;;;9.30;98.20;;;;;;6085993;23;20422;-81
2024/01/05 09:11:41;;;;;;;1.60;1.20;;;9.40;98.20;;;;;;6089911;23;20696;-81
2024/01/05 09:14:08;;;;;;;1.60;1.20;;;9.40;98.20;;;;;;6118815;23;20411;-82
2024/01/05 09:16:35;;;;;;;1.60;1.20;;;9.40;98.20;;;;;;6101292;23;20450;-81
2024/01/05 09:19:02;;;;;;;1.60;1.10;;;9.40;98.20;;;;;;6127753;23;20469;-81
2024/01/05 09:21:38;;;;;;;1.60;1.17;;;9.40;98.20;;;;;;6103484;23;20958;-84
2024/01/05 09:24:24;;;;;;;1.60;1.10;;;9.40;98.20;;;;;;6120852;23;21066;-82
2024/01/05 09:26:51;;;;;;;1.53;1.10;;;9.50;98.20;;;;;;6103629;23;21259;-81
2024/01/05 09:29:18;;;;;;;1.57;1.10;;;9.50;98.20;;;;;;6095726;23;20567;-79
2024/01/05 09:35:14;;;;;;;1.57;1.10;;;9.50;98.20;;;;;;6043557;23;20443;-79
2024/01/05 09:37:41;;;;;;;1.57;1.00;;;9.60;98.20;;;;;;6068369;23;20450;-80
2024/01/05 09:40:12;;;;;;;1.60;1.10;;;9.60;98.20;;;;;;6040529;23;20453;-80
2024/01/05 09:42:41;;;;;;;1.50;1.10;;;9.70;98.20;;;;;;6024735;23;20452;-81
2024/01/05 09:45:11;;;;;;;1.50;1.10;;;9.70;98.20;;;;;;6010520;23;20449;-80
2024/01/05 09:47:39;;;;;;;1.60;1.10;;;9.70;98.20;;;;;;6016012;23;20871;-81
2024/01/05 09:50:07;;;;;;;1.57;1.10;;;9.70;98.20;;;;;;6012052;23;20446;-81
2024/01/05 09:52:34;;;;;;;1.60;1.10;;;9.70;98.20;;;;;;6014216;23;20479;-81
2024/01/05 09:55:01;;;;;;;1.53;1.10;;;9.70;98.20;;;;;;6021219;23;20455;-80
2024/01/05 09:57:32;;;;;;;1.57;1.10;;;9.70;98.20;;;;;;6015150;23;20491;-81
2024/01/05 10:00:00;;;;;;;1.60;1.10;;;9.60;98.20;;;;;;6022186;23;20453;-80
2024/01/05 10:02:32;;;;;;;1.53;1.10;;;9.60;98.20;;;;;;6015407;23;20547;-80
2024/01/05 10:04:59;;;;;;;1.57;1.10;;;9.60;98.20;;;;;;6021983;23;20560;-80
2024/01/05 10:07:26;;;;;;;1.53;1.10;;;9.60;98.20;;;;;;6014867;23;20452;-81
2024/01/05 10:09:55;;;;;;;1.60;1.10;;;9.60;98.20;;;;;;6014647;23;20441;-79
2024/01/05 10:12:37;;;;;;;1.60;1.20;;;9.60;98.20;;;;;;6016416;23;20530;-79
2024/01/05 10:15:06;;;;;;;1.60;1.30;;;9.70;98.20;;;;;;6020399;23;20429;-80
2024/01/05 10:17:34;;;;;;;1.60;1.20;;;9.70;98.20;;;;;;6013967;23;20459;-80
2024/01/05 10:20:15;;;;;;;1.50;1.13;;;9.70;98.20;;;;;;6017560;23;20445;-80
2024/01/05 10:22:43;;;;;;;1.60;1.37;;;9.70;98.20;;;;;;6014213;23;20452;-80
2024/01/05 10:25:17;;;;;;;1.57;1.10;;;9.70;98.20;;;;;;6006570;23;20476;-78
2024/01/05 10:30:30;;;;;;;1.53;1.10;;;9.70;98.20;;;;;;6060007;23;20463;-80
2024/01/05 10:55:55;;;;;;;1.60;1.20;;;9.60;98.20;;;;;;5949496;24;20473;-80
2024/01/05 10:58:22;;;;;;;1.60;1.20;;;9.60;98.20;;;;;;5941320;23;20513;-81
2024/01/05 11:00:50;;;;;;;1.53;1.10;;;9.60;98.20;;;;;;5965494;23;20502;-82
2024/01/05 11:03:20;;;;;;;1.60;1.20;;;9.60;98.20;;;;;;6049861;23;20502;-81
2024/01/05 11:05:47;;;;;;;1.60;1.20;;;9.60;98.20;;;;;;6069494;23;20962;-81
2024/01/05 11:08:26;;;;;;;1.60;1.10;;;9.60;98.20;;;;;;6084844;23;20483;-81
2024/01/05 11:11:07;;;;;;;1.53;1.10;;;9.50;98.20;;;;;;6048738;23;20733;-81
2024/01/05 11:13:57;;;;;;;1.50;1.10;;;9.50;98.20;;;;;;6080972;23;20498;-80
2024/01/05 11:17:15;;;;;;;1.60;1.17;;;9.50;98.20;;;;;;6060023;23;21003;-81
2024/01/05 11:19:57;;;;;;;1.53;1.10;;;9.50;98.20;;;;;;6027295;23;20443;-81
2024/01/05 11:22:29;;;;;;;1.60;1.20;;;9.50;98.20;;;;;;6070080;23;20562;-82
2024/01/05 11:25:05;;;;;;;1.57;1.10;;;9.60;98.20;;;;;;6064740;23;20856;-81
2024/01/05 11:27:43;;;;;;;1.57;1.10;;;9.70;98.20;;;;;;6068059;23;20494;-82
2024/01/05 11:30:11;;;;;;;1.53;1.10;;;9.70;98.20;;;;;;6073829;23;20443;-81
2024/01/05 11:32:42;;;;;;;1.60;1.20;;;9.70;98.20;;;;;;6071027;23;20454;-81
2024/01/05 11:35:53;;;;;;;1.60;1.30;;;9.70;98.20;;;;;;6074110;23;20408;-81
2024/01/05 11:38:29;;;;;;;1.53;1.10;;;9.80;98.20;;;;;;6046744;23;20500;-80
2024/01/05 11:40:58;;;;;;;1.57;1.00;;;9.90;98.20;;;;;;6050343;23;20416;-82
2024/01/05 11:43:37;;;;;;;1.57;1.10;;;10.00;98.20;;;;;;6081384;23;20424;-80
2024/01/05 11:46:05;;;;;;;1.60;1.10;;;10.00;98.20;;;;;;6051023;23;20415;-79
2024/01/05 11:48:53;;;;;;;1.53;1.00;;;10.00;98.20;;;;;;6080582;23;20494;-78
2024/01/05 11:51:20;;;;;;;1.50;1.00;;;10.00;98.20;;;;;;6052999;23;20451;-78
2024/01/05 11:53:48;;;;;;;1.60;1.10;;;10.00;98.20;;;;;;6076193;23;20442;-79
2024/01/05 11:56:21;;;;;;;1.50;1.10;;;10.00;98.20;;;;;;6050880;23;20447;-77
2024/01/05 11:58:48;;;;;;;1.50;1.10;;;10.00;98.20;;;;;;6076226;23;20952;-76
2024/01/05 12:01:16;;;;;;;1.50;1.10;;;9.90;98.20;;;;;;6050818;23;20506;-77
2024/01/05 12:03:43;;;;;;;1.60;1.20;;;9.90;98.20;;;;;;6077972;23;20491;-79
2024/01/05 12:06:11;;;;;;;1.53;1.00;;;9.80;98.20;;;;;;6050557;23;20466;-79
2024/01/05 12:08:39;;;;;;;1.60;1.13;;;9.80;98.20;;;;;;6076774;23;20522;-78
2024/01/05 12:11:08;;;;;;;1.50;1.10;;;9.70;98.20;;;;;;6049513;23;20507;-78
2024/01/05 12:13:37;;;;;;;1.53;1.10;;;9.70;98.20;;;;;;6080068;23;20487;-78
2024/01/05 12:16:06;;;;;;;1.50;1.07;;;9.70;98.20;;;;;;6058707;23;20828;-79
2024/01/05 12:18:33;;;;;;;1.60;1.27;;;9.70;98.20;;;;;;6079331;23;20436;-79
2024/01/05 12:21:01;;;;;;;1.57;1.10;;;9.70;98.20;;;;;;6047481;23;20423;-78
2024/01/05 12:23:29;;;;;;;1.57;1.20;;;9.60;98.20;;;;;;6081156;23;20486;-78
2024/01/05 12:26:15;;;;;;;1.60;1.20;;;9.60;98.20;;;;;;6048159;23;20509;-79
2024/01/05 12:28:43;;;;;;;1.57;1.10;;;9.60;98.20;;;;;;6079531;23;20474;-78
2024/01/05 12:31:11;;;;;;;1.53;1.10;;;9.60;98.20;;;;;;6057848;23;20812;-80
2024/01/05 12:33:39;;;;;;;1.53;1.10;;;9.60;98.20;;;;;;6086408;23;20465;-77
2024/01/05 12:36:12;;;;;;;1.53;1.10;;;9.50;98.20;;;;;;6057559;23;20475;-77
2024/01/05 12:38:40;;;;;;;1.53;1.10;;;9.50;98.20;;;;;;6089295;23;20427;-78
2024/01/05 12:41:09;;;;;;;1.60;1.20;;;9.50;98.20;;;;;;6048723;23;20418;-78
2024/01/05 12:43:37;;;;;;;1.53;1.10;;;9.50;98.20;;;;;;6086519;23;20515;-77
2024/01/05 12:46:06;;;;;;;1.57;1.10;;;9.50;98.20;;;;;;6056431;23;20525;-78
2024/01/05 12:48:33;;;;;;;1.57;1.20;;;9.50;98.20;;;;;;6087847;23;20439;-77
2024/01/05 12:51:05;;;;;;;1.53;1.10;;;9.40;98.20;;;;;;6055116;23;20424;-77
2024/01/05 12:53:33;;;;;;;1.50;1.10;;;9.40;98.20;;;;;;6087448;23;20932;-77
2024/01/05 12:56:11;;;;;;;1.53;1.10;;;9.40;98.20;;;;;;6045862;23;20430;-78
2024/01/05 12:58:43;;;;;;;1.60;1.20;;;9.40;98.20;;;;;;6085916;23;20455;-77
2024/01/05 13:01:19;;;;;;;1.57;1.10;;;9.30;98.20;;;;;;6056720;23;20992;-77
2024/01/05 13:03:53;;;;;;;1.57;1.20;;;9.30;98.20;;;;;;6075950;23;20415;-77
2024/01/05 13:06:21;;;;;;;1.60;1.20;;;9.30;98.20;;;;;;6058118;23;20455;-77
2024/01/05 13:08:50;;;;;;;1.53;1.10;;;9.40;98.20;;;;;;6081617;23;20796;-77
2024/01/05 13:11:21;;;;;;;1.60;1.20;;;9.30;98.20;;;;;;6049656;23;20455;-78
2024/01/05 13:13:49;;;;;;;2.23;2.03;;;9.30;98.20;;;;;;6075542;23;20427;-78
2024/01/05 13:16:22;;;;;;;1.53;1.10;;;9.30;98.20;;;;;;6050546;23;20574;-78
2024/01/05 13:18:49;;;;;;;1.57;1.13;;;9.30;98.20;;;;;;6084430;23;20455;-77
2024/01/05 13:21:17;;;;;;;1.60;1.20;;;9.30;98.20;;;;;;6051931;23;20817;-78
2024/01/05 13:23:46;;;;;;;1.60;1.20;;;9.30;98.20;;;;;;6087291;23;20459;-81
2024/01/05 13:26:14;;;;;;;1.60;1.20;;;9.30;98.20;;;;;;6058479;23;20826;-77
2024/01/05 13:28:42;;;;;;;1.60;1.10;;;9.30;98.20;;;;;;6085315;23;20454;-78
2024/01/05 13:31:10;;;;;;;1.60;1.10;;;9.30;98.20;;;;;;6055850;23;20450;-78
2024/01/05 13:33:40;;;;;;;1.50;1.10;;;9.20;98.20;;;;;;6086425;23;20419;-78
2024/01/05 13:36:08;;;;;;;1.50;1.10;;;9.20;98.20;;;;;;6052079;23;21385;-78
2024/01/05 13:38:36;;;;;;;1.57;1.10;;;9.20;98.20;;;;;;6078761;23;20463;-76
2024/01/05 13:41:04;;;;;;;1.57;1.10;;;9.20;98.20;;;;;;6048136;23;20454;-79
2024/01/05 13:43:31;;;;;;;1.60;1.10;;;9.20;98.20;;;;;;6082266;23;20430;-79
2024/01/05 13:45:58;;;;;;;1.60;1.20;;;9.20;98.20;;;;;;6051070;23;20551;-79
2024/01/05 13:48:25;;;;;;;1.50;1.10;;;9.20;98.20;;;;;;6083295;23;20439;-78
2024/01/05 13:50:53;;;;;;;1.57;1.10;;;9.10;98.20;;;;;;6050053;23;20877;-79
2024/01/05 13:53:20;;;;;;;1.60;1.20;;;9.00;98.20;;;;;;6087356;23;20512;-79
2024/01/05 13:55:47;;;;;;;1.60;1.20;;;9.00;98.20;;;;;;6064978;23;20519;-78